createdAt,value
2018-11-13T00:01:59.824Z,10.77
2018-11-13T00:04:27.391Z,8.57
2018-11-13T00:06:55.911Z,8.27
2018-11-13T00:09:23.474Z,7.80
2018-11-13T00:11:51.042Z,6.90
2018-11-13T00:14:19.098Z,10.05
2018-11-13T00:16:46.659Z,8.00
2018-11-13T00:19:14.258Z,8.90
2018-11-13T00:21:41.820Z,8.20
2018-11-13T00:24:09.760Z,8.00
2018-11-13T00:26:38.135Z,7.67
2018-11-13T00:29:05.706Z,8.03
2018-11-13T00:31:33.269Z,7.73
2018-11-13T00:34:00.876Z,7.80
2018-11-13T00:36:28.436Z,10.65
2018-11-13T00:38:55.994Z,8.67
2018-11-13T00:41:24.366Z,8.27
2018-11-13T00:43:52.694Z,8.37
2018-11-13T00:46:20.572Z,8.50
2018-11-13T00:48:48.169Z,8.60
2018-11-13T00:51:16.496Z,8.97
2018-11-13T00:53:44.052Z,8.33
2018-11-13T00:56:11.643Z,8.33
2018-11-13T00:58:39.198Z,8.50
2018-11-13T01:01:06.794Z,8.63
2018-11-13T01:03:35.121Z,9.47
2018-11-13T01:06:03.103Z,8.37
2018-11-13T01:08:30.657Z,8.80
2018-11-13T01:10:58.216Z,9.20
2018-11-13T01:13:25.805Z,8.67
2018-11-13T01:15:53.373Z,8.70
2018-11-13T01:18:20.935Z,13.48
2018-11-13T01:20:48.529Z,13.40
2018-11-13T01:23:16.123Z,10.60
2018-11-13T01:25:43.768Z,7.90
2018-11-13T01:28:11.352Z,7.53
2018-11-13T01:30:38.940Z,7.53
2018-11-13T01:33:06.553Z,7.80
2018-11-13T01:35:34.139Z,7.30
2018-11-13T01:38:01.761Z,9.27
2018-11-13T01:40:30.104Z,8.70
2018-11-13T01:42:57.683Z,7.60
2018-11-13T01:45:25.325Z,7.57
2018-11-13T01:47:52.959Z,7.90
2018-11-13T01:50:21.260Z,6.50
2018-11-13T01:52:48.883Z,6.33
2018-11-13T01:55:16.461Z,10.13
2018-11-13T01:57:44.081Z,8.63
2018-11-13T02:00:12.437Z,10.07
2018-11-13T02:02:40.019Z,9.23
2018-11-13T02:05:08.402Z,10.77
2018-11-13T02:07:36.754Z,7.30
2018-11-13T02:10:04.646Z,7.17
2018-11-13T02:12:32.225Z,9.68
2018-11-13T02:15:00.570Z,7.70
2018-11-13T02:17:28.179Z,7.27
2018-11-13T02:19:55.760Z,6.30
2018-11-13T02:22:23.374Z,6.30
2018-11-13T02:24:51.729Z,5.63
2018-11-13T02:27:19.311Z,6.80
2018-11-13T02:29:46.920Z,7.00
2018-11-13T02:32:14.501Z,6.90
2018-11-13T02:34:42.575Z,6.23
2018-11-13T02:37:10.161Z,7.43
2018-11-13T02:39:37.761Z,7.33
2018-11-13T02:42:06.127Z,6.57
2018-11-13T02:44:34.479Z,7.40
2018-11-13T02:47:02.101Z,8.40
2018-11-13T02:49:29.704Z,7.55
2018-11-13T02:51:57.417Z,5.60
2018-11-13T02:54:25.019Z,5.73
2018-11-13T02:56:52.600Z,4.47
2018-11-13T02:59:20.565Z,4.83
2018-11-13T03:01:48.151Z,4.80
2018-11-13T03:04:15.753Z,6.78
2018-11-13T03:06:43.379Z,4.67
2018-11-13T03:09:11.729Z,4.40
2018-11-13T03:11:39.317Z,3.80
2018-11-13T03:14:07.704Z,5.37
2018-11-13T03:16:35.283Z,4.70
2018-11-13T03:19:02.872Z,4.03
2018-11-13T03:21:30.480Z,4.37
2018-11-13T03:23:58.823Z,4.60
2018-11-13T03:26:26.894Z,4.77
2018-11-13T03:28:54.487Z,5.97
2018-11-13T03:31:22.935Z,6.35
2018-11-13T03:33:50.450Z,5.00
2018-11-13T03:36:18.031Z,4.53
2018-11-13T03:38:45.644Z,4.30
2018-11-13T03:41:13.222Z,4.10
2018-11-13T03:43:41.570Z,4.60
2018-11-13T03:46:09.174Z,4.93
2018-11-13T03:48:36.750Z,6.00
2018-11-13T03:51:04.393Z,4.90
2018-11-13T03:53:32.741Z,4.73
2018-11-13T03:56:00.320Z,5.03
2018-11-13T03:58:28.689Z,6.57
2018-11-13T04:00:56.266Z,4.93
2018-11-13T04:03:24.648Z,4.60
2018-11-13T04:05:52.997Z,4.80
2018-11-13T04:08:20.850Z,4.50
2018-11-13T04:10:48.462Z,4.77
2018-11-13T04:13:16.809Z,4.40
2018-11-13T04:15:44.421Z,3.80
2018-11-13T04:18:11.999Z,3.93
2018-11-13T04:20:39.584Z,3.90
2018-11-13T04:23:07.191Z,3.93
2018-11-13T04:25:35.543Z,3.60
2018-11-13T04:28:03.114Z,3.83
2018-11-13T04:30:30.749Z,4.75
2018-11-13T04:32:58.308Z,4.17
2018-11-13T04:35:25.891Z,4.40
2018-11-13T04:37:53.527Z,3.80
2018-11-13T04:40:21.398Z,4.55
2018-11-13T04:42:48.978Z,3.97
2018-11-13T04:45:16.596Z,3.50
2018-11-13T04:47:44.175Z,3.80
2018-11-13T04:50:11.755Z,3.90
2018-11-13T04:52:39.376Z,3.90
2018-11-13T04:55:06.961Z,3.63
2018-11-13T04:57:34.536Z,4.17
2018-11-13T05:00:02.169Z,4.00
2018-11-13T05:02:29.762Z,5.20
2018-11-13T05:04:57.332Z,4.97
2018-11-13T05:07:24.949Z,4.70
2018-11-13T05:09:52.531Z,4.40
2018-11-13T05:12:20.114Z,4.63
2018-11-13T05:14:47.708Z,4.00
2018-11-13T05:17:16.061Z,3.87
2018-11-13T05:19:43.686Z,3.77
2018-11-13T05:22:12.266Z,4.33
2018-11-13T05:24:39.840Z,3.57
2018-11-13T05:27:07.467Z,3.70
2018-11-13T05:29:35.870Z,4.10
2018-11-13T05:32:03.447Z,3.87
2018-11-13T05:34:31.543Z,3.87
2018-11-13T05:36:59.122Z,3.57
2018-11-13T05:39:26.705Z,3.50
2018-11-13T05:41:54.524Z,3.97
2018-11-13T05:44:21.998Z,3.90
2018-11-13T05:46:49.580Z,3.87
2018-11-13T05:49:17.946Z,5.57
2018-11-13T05:51:45.524Z,4.30
2018-11-13T05:54:14.191Z,4.10
2018-11-13T05:56:41.824Z,3.87
2018-11-13T05:59:11.909Z,5.10
2018-11-13T06:01:36.955Z,5.80
2018-11-13T06:04:04.532Z,3.90
2018-11-13T06:06:32.916Z,4.37
2018-11-13T06:09:00.495Z,4.07
2018-11-13T06:11:28.843Z,3.93
2018-11-13T06:13:56.498Z,3.50
2018-11-13T06:16:24.794Z,3.40
2018-11-13T06:18:52.471Z,4.78
2018-11-13T06:21:20.055Z,4.57
2018-11-13T06:23:47.634Z,3.77
2018-11-13T06:26:15.294Z,3.97
2018-11-13T06:28:42.872Z,3.40
2018-11-13T06:31:10.447Z,3.60
2018-11-13T06:33:38.049Z,3.77
2018-11-13T06:36:06.397Z,4.43
2018-11-13T06:38:34.628Z,3.20
2018-11-13T06:41:02.196Z,3.07
2018-11-13T06:43:29.781Z,3.13
2018-11-13T06:45:57.411Z,3.50
2018-11-13T06:48:25.755Z,3.40
2018-11-13T06:50:53.336Z,3.60
2018-11-13T06:53:21.704Z,4.80
2018-11-13T06:55:49.278Z,4.07
2018-11-13T06:58:16.903Z,3.43
2018-11-13T07:00:44.481Z,3.80
2018-11-13T07:03:12.062Z,3.40
2018-11-13T07:05:39.709Z,3.30
2018-11-13T07:08:07.286Z,2.97
2018-11-13T07:10:35.662Z,4.10
2018-11-13T07:13:04.145Z,3.90
2018-11-13T07:15:32.079Z,3.80
2018-11-13T07:17:59.651Z,4.10
2018-11-13T07:20:28.151Z,3.80
2018-11-13T07:22:55.719Z,3.77
2018-11-13T07:25:24.399Z,3.70
2018-11-13T07:27:52.717Z,3.70
2018-11-13T07:30:20.281Z,3.73
2018-11-13T07:32:47.928Z,3.57
2018-11-13T07:35:16.274Z,4.03
2018-11-13T07:37:43.852Z,3.40
2018-11-13T07:40:12.254Z,4.97
2018-11-13T07:42:39.866Z,3.80
2018-11-13T07:45:07.424Z,3.87
2018-11-13T07:47:35.141Z,4.17
2018-11-13T07:50:02.663Z,4.60
2018-11-13T07:52:30.243Z,3.67
2018-11-13T07:54:58.673Z,3.97
2018-11-13T07:57:26.251Z,3.87
2018-11-13T07:59:53.832Z,4.43
2018-11-13T08:02:21.487Z,4.65
2018-11-13T08:04:49.067Z,4.68
2018-11-13T08:07:16.694Z,4.78
2018-11-13T08:09:45.069Z,3.83
2018-11-13T08:12:12.648Z,3.67
2018-11-13T08:14:40.229Z,3.47
2018-11-13T08:17:07.910Z,3.30
2018-11-13T08:19:36.251Z,3.57
2018-11-13T08:22:03.833Z,3.40
2018-11-13T08:24:31.438Z,3.80
2018-11-13T08:26:59.094Z,3.57
2018-11-13T08:29:26.682Z,3.80
2018-11-13T08:31:54.986Z,3.20
2018-11-13T08:34:22.612Z,4.53
2018-11-13T08:36:50.194Z,3.40
2018-11-13T08:39:17.771Z,3.27
2018-11-13T08:41:45.380Z,3.50
2018-11-13T08:44:13.120Z,3.17
2018-11-13T08:46:40.605Z,3.00
2018-11-13T08:49:08.187Z,3.30
2018-11-13T08:51:35.789Z,3.07
2018-11-13T08:54:03.862Z,3.00
2018-11-13T08:56:31.445Z,3.60
2018-11-13T08:58:59.852Z,3.27
2018-11-13T09:01:27.670Z,3.60
2018-11-13T09:03:55.255Z,3.40
2018-11-13T09:06:23.595Z,2.77
2018-11-13T09:08:51.226Z,3.10
2018-11-13T09:11:18.902Z,3.25
2018-11-13T09:13:46.399Z,2.97
2018-11-13T09:16:14.025Z,3.00
2018-11-13T09:18:41.649Z,3.37
2018-11-13T09:21:09.190Z,3.13
2018-11-13T09:23:36.860Z,3.45
2018-11-13T09:26:04.465Z,3.20
2018-11-13T09:28:32.774Z,3.40
2018-11-13T09:31:00.574Z,3.20
2018-11-13T09:33:28.026Z,2.97
2018-11-13T09:35:55.589Z,2.73
2018-11-13T09:38:23.518Z,2.33
2018-11-13T09:40:51.112Z,2.87
2018-11-13T09:43:19.175Z,2.77
2018-11-13T09:45:46.808Z,2.87
2018-11-13T09:48:15.108Z,3.40
2018-11-13T09:50:42.755Z,3.60
2018-11-13T09:53:10.354Z,3.93
2018-11-13T09:55:37.897Z,2.77
2018-11-13T09:58:05.625Z,3.50
2018-11-13T10:00:33.435Z,2.77
2018-11-13T10:03:01.451Z,2.97
2018-11-13T10:05:28.604Z,3.00
2018-11-13T10:07:56.019Z,2.50
2018-11-13T10:10:23.656Z,2.37
2018-11-13T10:12:52.009Z,2.10
2018-11-13T10:15:19.595Z,3.10
2018-11-13T10:17:47.243Z,2.77
2018-11-13T10:20:14.776Z,2.40
2018-11-13T10:22:43.150Z,2.53
2018-11-13T10:25:10.726Z,2.80
2018-11-13T10:27:38.398Z,3.00
2018-11-13T10:30:05.947Z,2.10
2018-11-13T10:32:34.287Z,2.23
2018-11-13T10:35:03.346Z,2.40
2018-11-13T10:37:30.927Z,2.63
2018-11-13T10:39:58.548Z,2.17
2018-11-13T10:42:26.154Z,2.60
2018-11-13T10:44:53.728Z,2.10
2018-11-13T10:47:21.308Z,2.40
2018-11-13T10:49:49.980Z,2.10
2018-11-13T10:52:17.556Z,2.43
2018-11-13T10:54:45.132Z,2.73
2018-11-13T10:57:14.487Z,2.73
2018-11-13T10:59:42.075Z,2.00
2018-11-13T11:02:09.692Z,2.00
2018-11-13T11:04:38.026Z,2.10
2018-11-13T11:07:06.379Z,2.37
2018-11-13T11:09:34.029Z,2.33
2018-11-13T11:12:01.607Z,2.47
2018-11-13T11:14:29.190Z,2.37
2018-11-13T11:16:56.837Z,3.70
2018-11-13T11:19:24.498Z,2.20
2018-11-13T11:21:52.791Z,2.97
2018-11-13T11:24:20.417Z,2.70
2018-11-13T11:26:48.490Z,2.77
2018-11-13T11:29:17.616Z,2.80
2018-11-13T11:31:45.202Z,2.77
2018-11-13T11:34:13.541Z,2.30
2018-11-13T11:36:41.530Z,2.63
2018-11-13T11:39:09.156Z,2.90
2018-11-13T11:41:36.683Z,2.85
2018-11-13T11:44:05.116Z,2.57
2018-11-13T11:46:32.700Z,2.10
2018-11-13T11:49:00.282Z,1.97
2018-11-13T11:51:29.259Z,1.90
2018-11-13T11:53:57.230Z,1.80
2018-11-13T11:56:24.771Z,1.70
2018-11-13T11:58:52.400Z,1.70
2018-11-13T12:01:19.975Z,2.00
2018-11-13T12:03:47.555Z,1.83
2018-11-13T12:06:15.179Z,1.83
2018-11-13T12:08:43.069Z,2.00
2018-11-13T12:11:10.651Z,2.03
2018-11-13T12:13:39.345Z,1.77
2018-11-13T12:16:07.035Z,1.40
2018-11-13T12:18:35.383Z,1.30
2018-11-13T12:21:04.051Z,1.70
2018-11-13T12:23:31.918Z,1.50
2018-11-13T12:25:59.562Z,1.23
2018-11-13T12:28:28.398Z,1.33
2018-11-13T12:30:55.991Z,1.40
2018-11-13T12:33:24.335Z,2.10
2018-11-13T12:35:51.968Z,1.37
2018-11-13T12:38:19.541Z,1.20
2018-11-13T12:40:47.229Z,1.70
2018-11-13T12:43:14.747Z,1.50
2018-11-13T12:45:42.325Z,1.23
2018-11-13T12:48:09.964Z,1.90
2018-11-13T12:50:37.547Z,3.70
2018-11-13T12:53:05.130Z,5.17
2018-11-13T12:55:32.819Z,2.40
2018-11-13T12:58:00.341Z,1.48
2018-11-13T13:00:27.916Z,2.80
2018-11-13T13:02:55.549Z,11.40
2018-11-13T13:05:23.134Z,5.95
2018-11-13T13:07:50.723Z,1.60
2018-11-13T13:10:18.329Z,3.10
2018-11-13T13:12:45.910Z,3.70
2018-11-13T13:15:14.620Z,1.90
2018-11-13T13:17:42.205Z,1.90
2018-11-13T13:20:09.790Z,1.10
2018-11-13T13:22:37.415Z,1.00
2018-11-13T13:25:05.134Z,1.13
2018-11-13T13:27:32.592Z,1.30
2018-11-13T13:30:00.321Z,1.20
2018-11-13T13:32:28.665Z,1.43
2018-11-13T13:34:56.513Z,1.80
2018-11-13T13:37:24.482Z,1.55
2018-11-13T13:39:52.158Z,1.00
2018-11-13T13:42:19.797Z,0.97
2018-11-13T13:44:47.378Z,1.27
2018-11-13T13:47:14.964Z,1.50
2018-11-13T13:49:42.594Z,1.40
2018-11-13T13:52:10.208Z,1.50
2018-11-13T13:54:38.554Z,1.10
2018-11-13T13:57:06.180Z,1.07
2018-11-13T13:59:33.809Z,1.50
2018-11-13T14:02:01.380Z,0.90
2018-11-13T14:04:30.624Z,1.00
2018-11-13T14:06:58.210Z,1.53
2018-11-13T14:09:25.808Z,2.30
2018-11-13T14:11:53.439Z,1.00
2018-11-13T14:14:21.019Z,1.03
2018-11-13T14:16:49.413Z,1.53
2018-11-13T14:19:17.426Z,1.60
2018-11-13T14:21:45.001Z,1.30
2018-11-13T14:24:12.579Z,1.70
2018-11-13T14:26:40.254Z,1.73
2018-11-13T14:29:07.887Z,1.20
2018-11-13T14:31:36.164Z,1.37
2018-11-13T14:34:03.804Z,0.90
2018-11-13T14:36:31.379Z,1.03
2018-11-13T14:38:58.971Z,0.90
2018-11-13T14:41:26.610Z,1.00
2018-11-13T14:43:54.187Z,1.13
2018-11-13T14:46:21.828Z,1.30
2018-11-13T14:48:50.536Z,1.17
2018-11-13T14:51:18.121Z,0.93
2018-11-13T14:53:46.468Z,1.27
2018-11-13T14:56:14.095Z,1.43
2018-11-13T14:58:41.685Z,1.37
2018-11-13T15:01:09.270Z,1.10
2018-11-13T15:03:36.895Z,0.90
2018-11-13T15:06:04.474Z,1.00
2018-11-13T15:08:32.059Z,1.03
2018-11-13T15:10:59.700Z,1.10
2018-11-13T15:13:27.330Z,0.90
2018-11-13T15:15:54.917Z,1.10
2018-11-13T15:18:22.538Z,1.27
2018-11-13T15:20:50.126Z,1.10
2018-11-13T15:23:17.708Z,1.63
2018-11-13T15:25:45.666Z,1.00
2018-11-13T15:28:13.253Z,1.40
2018-11-13T15:30:40.851Z,1.13
2018-11-13T15:33:09.238Z,1.30
2018-11-13T15:35:36.822Z,1.33
2018-11-13T15:38:04.406Z,1.63
2018-11-13T15:40:32.036Z,1.00
2018-11-13T15:42:59.612Z,1.00
2018-11-13T15:45:27.192Z,1.00
2018-11-13T15:47:54.827Z,1.20
2018-11-13T15:50:22.415Z,1.23
2018-11-13T15:52:49.998Z,1.50
2018-11-13T15:55:17.934Z,1.40
2018-11-13T15:57:45.556Z,1.17
2018-11-13T16:00:13.098Z,1.30
2018-11-13T16:02:41.098Z,1.95
2018-11-13T16:05:08.645Z,1.50
2018-11-13T16:07:36.989Z,1.70
2018-11-13T16:10:04.667Z,1.43
2018-11-13T16:12:32.275Z,2.05
2018-11-13T16:14:59.844Z,1.70
2018-11-13T16:17:28.208Z,2.40
2018-11-13T16:19:55.930Z,1.70
2018-11-13T16:22:23.494Z,2.10
2018-11-13T16:24:52.663Z,1.93
2018-11-13T16:27:20.245Z,1.80
2018-11-13T16:29:47.871Z,1.60
2018-11-13T16:32:15.453Z,1.90
2018-11-13T16:34:43.039Z,1.60
2018-11-13T16:37:10.620Z,1.30
2018-11-13T16:39:39.368Z,1.43
2018-11-13T16:42:07.018Z,1.47
2018-11-13T16:44:35.150Z,1.60
2018-11-13T16:47:03.498Z,1.60
2018-11-13T16:49:31.128Z,1.85
2018-11-13T16:51:59.182Z,2.47
2018-11-13T16:54:26.782Z,2.03
2018-11-13T16:56:54.426Z,2.00
2018-11-13T16:59:22.039Z,1.53
2018-11-13T17:01:49.585Z,2.20
2018-11-13T17:04:17.176Z,2.10
2018-11-13T17:06:45.744Z,2.53
2018-11-13T17:09:13.157Z,2.50
2018-11-13T17:11:40.805Z,2.40
2018-11-13T17:14:08.404Z,2.60
2018-11-13T17:16:35.965Z,6.07
2018-11-13T17:19:03.560Z,4.60
2018-11-13T17:21:31.955Z,6.30
2018-11-13T17:23:59.570Z,6.53
2018-11-13T17:26:27.177Z,8.70
2018-11-13T17:28:55.704Z,9.63
2018-11-13T17:31:23.316Z,10.02
2018-11-13T17:33:50.873Z,7.67
2018-11-13T17:36:19.786Z,6.37
2018-11-13T17:38:47.372Z,6.27
2018-11-13T17:41:14.951Z,6.00
2018-11-13T17:43:42.584Z,4.73
2018-11-13T17:46:10.180Z,5.43
2018-11-13T17:48:37.766Z,12.17
2018-11-13T17:51:06.166Z,6.77
2018-11-13T17:53:33.800Z,5.37
2018-11-13T17:56:01.336Z,6.67
2018-11-13T17:58:28.981Z,4.30
2018-11-13T18:00:56.563Z,6.70
2018-11-13T18:03:24.151Z,8.68
2018-11-13T18:05:51.781Z,6.30
2018-11-13T18:08:19.361Z,6.97
2018-11-13T18:10:46.943Z,5.50
2018-11-13T18:13:16.036Z,5.33
2018-11-13T18:15:43.616Z,6.00
2018-11-13T18:18:11.208Z,5.27
2018-11-13T18:20:38.826Z,5.57
2018-11-13T18:23:06.403Z,6.17
2018-11-13T18:25:34.751Z,6.20
2018-11-13T18:28:02.762Z,6.57
2018-11-13T18:30:30.304Z,7.20
2018-11-13T18:32:58.331Z,6.00
2018-11-13T18:35:25.955Z,8.20
2018-11-13T18:37:53.619Z,7.10
2018-11-13T18:40:21.121Z,7.10
2018-11-13T18:42:49.546Z,7.00
2018-11-13T18:45:17.888Z,6.37
2018-11-13T18:47:45.463Z,6.83
2018-11-13T18:50:13.516Z,6.90
2018-11-13T18:52:41.343Z,10.70
2018-11-13T18:55:08.922Z,6.03
2018-11-13T18:57:36.555Z,8.60
2018-11-13T19:00:04.900Z,7.57
2018-11-13T19:02:32.479Z,6.20
2018-11-13T19:05:01.182Z,5.63
2018-11-13T19:07:28.747Z,6.63
2018-11-13T19:09:56.329Z,7.17
2018-11-13T19:12:24.019Z,8.47
2018-11-13T19:14:52.346Z,5.57
2018-11-13T19:17:19.940Z,5.67
2018-11-13T19:19:48.324Z,7.97
2018-11-13T19:22:16.102Z,6.87
2018-11-13T19:24:43.809Z,6.90
2018-11-13T19:27:11.395Z,6.70
2018-11-13T19:29:39.043Z,8.07
2018-11-13T19:32:06.637Z,8.33
2018-11-13T19:34:34.222Z,7.57
2018-11-13T19:37:01.864Z,6.93
2018-11-13T19:39:30.694Z,6.77
2018-11-13T19:41:58.284Z,9.48
2018-11-13T19:44:26.685Z,10.10
2018-11-13T19:46:54.240Z,8.83
2018-11-13T19:49:22.246Z,9.83
2018-11-13T19:51:49.477Z,8.47
2018-11-13T19:54:17.052Z,8.57
2018-11-13T19:56:44.642Z,7.63
2018-11-13T19:59:12.829Z,7.17
2018-11-13T20:01:40.403Z,7.73
2018-11-13T20:04:08.814Z,6.67
2018-11-13T20:06:36.848Z,6.80
2018-11-13T20:09:04.524Z,6.80
2018-11-13T20:11:32.233Z,6.43
2018-11-13T20:13:59.826Z,5.90
2018-11-13T20:16:27.484Z,5.60
2018-11-13T20:18:55.068Z,6.20
2018-11-13T20:21:22.644Z,7.07
2018-11-13T20:23:51.378Z,7.83
2018-11-13T20:26:19.014Z,8.43
2018-11-13T20:28:46.596Z,9.43
2018-11-13T20:31:14.213Z,10.13
2018-11-13T20:33:42.166Z,9.67
2018-11-13T20:36:09.743Z,9.03
2018-11-13T20:38:37.357Z,8.20
2018-11-13T20:41:06.180Z,10.40
2018-11-13T20:43:33.802Z,18.98
2018-11-13T20:46:01.361Z,14.33
2018-11-13T20:48:28.985Z,11.83
2018-11-13T20:50:56.570Z,11.17
2018-11-13T20:53:24.171Z,9.17
2018-11-13T20:55:52.254Z,8.00
2018-11-13T20:58:19.845Z,6.97
2018-11-13T21:00:47.429Z,6.73
2018-11-13T21:03:15.055Z,5.87
2018-11-13T21:05:42.675Z,7.33
2018-11-13T21:08:10.227Z,8.30
2018-11-13T21:10:37.900Z,7.23
2018-11-13T21:13:06.210Z,6.37
2018-11-13T21:15:33.789Z,6.87
2018-11-13T21:18:02.887Z,6.40
2018-11-13T21:20:31.232Z,6.43
2018-11-13T21:22:58.823Z,7.07
2018-11-13T21:25:27.215Z,8.30
2018-11-13T21:27:55.561Z,7.40
2018-11-13T21:30:23.218Z,6.37
2018-11-13T21:32:50.772Z,6.23
2018-11-13T21:35:18.346Z,6.40
2018-11-13T21:37:45.994Z,6.70
2018-11-13T21:40:13.551Z,7.40
2018-11-13T21:42:41.135Z,7.33
2018-11-13T21:45:08.747Z,7.63
2018-11-13T21:47:36.982Z,6.53
2018-11-13T21:50:04.613Z,6.77
2018-11-13T21:52:32.136Z,7.13
2018-11-13T21:54:59.758Z,6.70
2018-11-13T21:57:27.334Z,7.77
2018-11-13T21:59:54.910Z,9.97
2018-11-13T22:02:23.280Z,10.97
2018-11-13T22:04:51.656Z,8.20
2018-11-13T22:07:19.514Z,10.32
2018-11-13T22:09:47.108Z,10.10
2018-11-13T22:12:14.687Z,10.20
2018-11-13T22:14:42.330Z,8.97
2018-11-13T22:17:10.685Z,9.00
2018-11-13T22:19:38.291Z,8.80
2018-11-13T22:22:06.719Z,8.03
2018-11-13T22:24:34.258Z,7.93
2018-11-13T22:27:01.882Z,12.30
2018-11-13T22:29:30.447Z,13.27
2018-11-13T22:31:58.802Z,11.60
2018-11-13T22:34:26.392Z,7.17
2018-11-13T22:36:54.011Z,5.90
2018-11-13T22:39:21.832Z,6.47
2018-11-13T22:41:50.166Z,8.53
2018-11-13T22:44:17.891Z,8.27
2018-11-13T22:46:45.436Z,7.33
2018-11-13T22:49:13.788Z,9.63
2018-11-13T22:51:41.414Z,9.07
2018-11-13T22:54:09.290Z,10.57
2018-11-13T22:56:36.887Z,12.00
2018-11-13T22:59:05.327Z,11.60
2018-11-13T23:01:32.917Z,14.23
2018-11-13T23:04:00.616Z,12.37
2018-11-13T23:06:28.276Z,11.80
2018-11-13T23:08:55.868Z,12.70
2018-11-13T23:11:23.462Z,12.50
2018-11-13T23:13:51.066Z,9.80
2018-11-13T23:16:18.644Z,9.57
2018-11-13T23:18:46.229Z,12.03
2018-11-13T23:21:13.834Z,10.77
2018-11-13T23:23:42.186Z,10.60
2018-11-13T23:26:09.861Z,11.13
2018-11-13T23:28:37.463Z,12.95
2018-11-13T23:31:05.050Z,15.05
2018-11-13T23:33:32.664Z,12.90
2018-11-13T23:36:01.080Z,11.40
2018-11-13T23:38:28.971Z,9.93
2018-11-13T23:40:56.552Z,9.30
2018-11-13T23:43:24.135Z,9.00
2018-11-13T23:45:51.746Z,8.70
2018-11-13T23:48:19.328Z,9.23
2018-11-13T23:50:47.346Z,8.07
2018-11-13T23:53:15.695Z,8.77
2018-11-13T23:55:43.360Z,7.87
2018-11-13T23:58:10.976Z,10.77
